Time;durP1;ratioP1;P1;durP2;ratioP2;P2;SDS_P1;SDS_P2;PMS_P1;PMS_P2;Temp;Humidity;BMP_temperature;BMP_pressure;BME280_temperature;BME280_humidity;BME280_pressure;Samples;Min_cycle;Max_cycle;Signal;HPM_P1;HPM_P2
2024/04/12 00:01:15;;;;;;;;;;;;;;;14.25;71.84;102711.88;4365785;27;19931;-69
2024/04/12 00:03:17;;;;;;;;;;;;;;;14.24;71.83;102708.28;4392977;26;19931;-69
2024/04/12 00:05:21;;;;;;;;;;;;;;;14.24;71.41;102704.72;4365910;27;19938;-68
2024/04/12 00:07:22;;;;;;;;;;;;;;;14.24;71.81;102702.00;4364876;27;19939;-69
2024/04/12 00:09:29;;;;;;;;;;;;;;;14.24;72.02;102704.72;4365262;27;19935;-68
2024/04/12 00:11:30;;;;;;;;;;;;;;;14.24;72.02;102699.28;4364882;27;20305;-68
2024/04/12 00:13:40;;;;;;;;;;;;;;;14.23;72.15;102700.28;4363805;27;19931;-68
2024/04/12 00:15:42;;;;;;;;;;;;;;;14.23;72.10;102700.28;4365604;27;19931;-67
2024/04/12 00:17:47;;;;;;;;;;;;;;;14.24;72.04;102693.84;4380805;27;20001;-68
2024/04/12 00:19:52;;;;;;;;;;;;;;;14.23;72.33;102692.13;4393883;27;20335;-69
2024/04/12 00:21:56;;;;;;;;;;;;;;;14.23;72.09;102701.16;4363785;27;19938;-69
2024/04/12 00:23:59;;;;;;;;;;;;;;;14.22;72.36;102691.28;4364427;27;19943;-69
2024/04/12 00:26:03;;;;;;;;;;;;;;;14.23;72.52;102692.13;4394331;26;20000;-69
2024/04/12 00:28:09;;;;;;;;;;;;;;;14.23;72.49;102686.69;4392547;26;20075;-69
2024/04/12 00:30:11;;;;;;;;;;;;;;;14.23;72.63;102692.13;4394177;27;19937;-70
2024/04/12 00:32:18;;;;;;;;;;;;;;;14.22;72.57;102694.00;4392052;26;19942;-69
2024/04/12 00:34:26;;;;;;;;;;;;;;;14.22;72.90;102693.16;4393583;26;19930;-67
2024/04/12 00:36:30;;;;;;;;;;;;;;;14.21;72.70;102692.28;4393591;26;19936;-69
2024/04/12 00:38:31;;;;;;;;;;;;;;;14.21;72.82;102697.72;4393629;26;19942;-69
2024/04/12 00:40:34;;;;;;;;;;;;;;;14.21;72.98;102694.16;4362502;27;19931;-69
2024/04/12 00:42:38;;;;;;;;;;;;;;;14.16;73.09;102686.47;4392200;27;20383;-67
2024/04/12 00:44:42;;;;;;;;;;;;;;;14.20;73.28;102690.59;4393047;26;19941;-68
2024/04/12 00:46:43;;;;;;;;;;;;;;;14.19;73.43;102686.16;4393949;26;20376;-67
2024/04/12 00:48:44;;;;;;;;;;;;;;;14.19;73.53;102685.31;4360855;27;19942;-68
2024/04/12 00:50:50;;;;;;;;;;;;;;;14.18;73.66;102689.03;4388992;27;19931;-67
2024/04/12 00:52:53;;;;;;;;;;;;;;;14.17;73.75;102682.75;4388742;27;20303;-69
2024/04/12 00:54:54;;;;;;;;;;;;;;;14.17;73.70;102681.88;4360159;27;20277;-68
2024/04/12 00:56:58;;;;;;;;;;;;;;;14.16;73.68;102689.19;4390431;26;19938;-68
2024/04/12 00:59:02;;;;;;;;;;;;;;;14.16;73.73;102691.06;4390165;27;20489;-67
2024/04/12 01:01:10;;;;;;;;;;;;;;;14.16;73.85;102685.63;4390970;26;19931;-68
2024/04/12 01:03:14;;;;;;;;;;;;;;;14.16;73.68;102688.34;4392101;26;19931;-68
2024/04/12 01:05:21;;;;;;;;;;;;;;;14.15;73.61;102695.66;4391658;26;20293;-68
2024/04/12 01:07:23;;;;;;;;;;;;;;;14.17;73.80;102690.03;4393320;26;20364;-67
2024/04/12 01:09:28;;;;;;;;;;;;;;;14.15;73.98;102690.22;4391175;26;20005;-67
2024/04/12 01:11:31;;;;;;;;;;;;;;;14.15;74.05;102687.50;4394813;26;20360;-68
2024/04/12 01:13:36;;;;;;;;;;;;;;;14.15;74.23;102684.78;4392730;26;19930;-67
2024/04/12 01:15:39;;;;;;;;;;;;;;;14.14;74.36;102688.50;4362628;27;19931;-68
2024/04/12 01:17:44;;;;;;;;;;;;;;;14.14;74.71;102684.94;4388470;26;19937;-68
2024/04/12 01:19:46;;;;;;;;;;;;;;;14.13;74.63;102686.78;4391635;27;19946;-68
2024/04/12 01:21:51;;;;;;;;;;;;;;;14.13;74.84;102677.78;4390353;27;19941;-68
2024/04/12 01:23:53;;;;;;;;;;;;;;;14.12;75.07;102682.38;4392138;27;19931;-67
2024/04/12 01:25:59;;;;;;;;;;;;;;;14.13;75.12;102680.50;4362954;27;19931;-67
2024/04/12 01:28:02;;;;;;;;;;;;;;;14.12;75.30;102678.78;4363116;27;19938;-68
2024/04/12 01:30:11;;;;;;;;;;;;;;;14.11;75.32;102672.50;4363252;27;19959;-68
2024/04/12 01:32:12;;;;;;;;;;;;;;;14.10;75.26;102665.34;4392573;26;20000;-69
2024/04/12 01:34:16;;;;;;;;;;;;;;;14.08;75.37;102658.38;4379171;26;19931;-69
2024/04/12 01:36:17;;;;;;;;;;;;;;;14.09;75.73;102658.22;4362896;27;19931;-68
2024/04/12 01:38:22;;;;;;;;;;;;;;;14.08;75.46;102655.66;4376205;26;19937;-68
2024/04/12 01:40:24;;;;;;;;;;;;;;;14.08;76.16;102659.22;4362010;27;19935;-69
2024/04/12 01:42:37;;;;;;;;;;;;;;;14.06;76.08;102648.50;4390055;27;19931;-68
2024/04/12 01:44:38;;;;;;;;;;;;;;;14.06;76.28;102648.50;4334718;27;19987;-68
2024/04/12 01:46:42;;;;;;;;;;;;;;;14.06;76.25;102662.09;4390279;26;19964;-69
2024/04/12 01:48:43;;;;;;;;;;;;;;;14.04;76.58;102655.97;4361637;27;20801;-69
2024/04/12 01:50:51;;;;;;;;;;;;;;;14.05;76.41;102654.09;4361537;27;19939;-69
2024/04/12 01:52:54;;;;;;;;;;;;;;;14.04;76.47;102650.53;4392291;27;19941;-69
2024/04/12 01:55:10;;;;;;;;;;;;;;;14.04;76.51;102658.69;4391968;27;19939;-69
2024/04/12 01:57:11;;;;;;;;;;;;;;;14.04;76.65;102666.81;4349621;27;20419;-69
2024/04/12 01:59:23;;;;;;;;;;;;;;;14.03;76.43;102654.25;4390714;27;20083;-69
2024/04/12 02:01:26;;;;;;;;;;;;;;;14.02;76.29;102655.25;4350025;27;19931;-69
2024/04/12 02:03:30;;;;;;;;;;;;;;;14.03;76.64;102656.13;4392511;27;20418;-69
2024/04/12 02:05:32;;;;;;;;;;;;;;;14.02;76.40;102649.81;4391955;26;19935;-68
2024/04/12 02:07:39;;;;;;;;;;;;;;;14.00;76.54;102643.69;4391606;26;19945;-69
2024/04/12 02:09:40;;;;;;;;;;;;;;;14.00;76.69;102653.69;4392504;26;19931;-68
2024/04/12 02:11:45;;;;;;;;;;;;;;;13.99;76.55;102652.81;4392501;27;19938;-68
2024/04/12 02:13:46;;;;;;;;;;;;;;;13.99;76.34;102650.09;4349658;27;19943;-69
2024/04/12 02:15:51;;;;;;;;;;;;;;;13.99;76.34;102646.53;4390226;26;19931;-68
2024/04/12 02:18:02;;;;;;;;;;;;;;;13.98;76.20;102651.13;4391299;26;20450;-69
2024/04/12 02:20:09;;;;;;;;;;;;;;;13.96;76.18;102650.41;4391967;27;19930;-68
2024/04/12 02:22:13;;;;;;;;;;;;;;;13.96;76.27;102658.56;4390601;27;19938;-68
2024/04/12 02:24:17;;;;;;;;;;;;;;;13.96;76.33;102655.00;4334375;27;19932;-68
2024/04/12 02:26:23;;;;;;;;;;;;;;;13.94;76.14;102652.44;4392527;26;20255;-68
2024/04/12 02:28:26;;;;;;;;;;;;;;;13.92;76.25;102649.03;4392566;26;20338;-68
2024/04/12 02:30:32;;;;;;;;;;;;;;;13.91;75.90;102650.03;4392182;27;19942;-68
2024/04/12 02:32:35;;;;;;;;;;;;;;;13.91;75.90;102663.59;4392531;26;19938;-68
2024/04/12 02:34:39;;;;;;;;;;;;;;;13.89;75.49;102660.19;4390760;27;19931;-68
2024/04/12 02:36:40;;;;;;;;;;;;;;;13.89;75.51;102668.34;4392023;26;19931;-68
2024/04/12 02:38:49;;;;;;;;;;;;;;;13.88;75.48;102669.34;4393228;26;20347;-68
2024/04/12 02:40:50;;;;;;;;;;;;;;;13.87;75.60;102675.78;4392469;26;20295;-68
2024/04/12 02:42:55;;;;;;;;;;;;;;;13.85;75.78;102667.78;4391202;27;19942;-68
2024/04/12 02:44:59;;;;;;;;;;;;;;;13.82;75.85;102662.69;4392681;26;19940;-67
2024/04/12 02:47:04;;;;;;;;;;;;;;;13.81;75.97;102666.38;4392512;26;20000;-68
2024/04/12 02:49:10;;;;;;;;;;;;;;;13.79;76.21;102665.69;4391321;27;19939;-67
2024/04/12 02:51:17;;;;;;;;;;;;;;;13.77;76.37;102659.53;4391237;26;20004;-67
2024/04/12 02:53:18;;;;;;;;;;;;;;;13.77;76.19;102661.41;4391485;26;20485;-67
2024/04/12 02:55:21;;;;;;;;;;;;;;;13.76;76.11;102665.13;4361675;27;19932;-67
2024/04/12 02:57:28;;;;;;;;;;;;;;;13.74;76.62;102665.25;4391176;26;20627;-67
2024/04/12 02:59:29;;;;;;;;;;;;;;;13.74;76.74;102665.25;4392638;27;20315;-67
2024/04/12 03:01:35;;;;;;;;;;;;;;;13.72;76.73;102661.84;4376691;27;19931;-67
2024/04/12 03:03:36;;;;;;;;;;;;;;;13.72;77.03;102659.16;4391895;27;20002;-68
2024/04/12 03:05:43;;;;;;;;;;;;;;;13.71;77.17;102654.69;4391065;27;19931;-67
2024/04/12 03:07:45;;;;;;;;;;;;;;;13.70;77.26;102655.72;4392079;26;19941;-68
2024/04/12 03:09:53;;;;;;;;;;;;;;;13.69;77.06;102656.72;4391517;27;19934;-68
2024/04/12 03:11:54;;;;;;;;;;;;;;;13.69;77.18;102659.44;4375987;27;19938;-67
2024/04/12 03:13:59;;;;;;;;;;;;;;;13.68;77.29;102664.03;4361241;27;19935;-67
2024/04/12 03:16:00;;;;;;;;;;;;;;;13.67;77.29;102648.72;4391659;27;19931;-67
2024/04/12 03:18:04;;;;;;;;;;;;;;;13.68;77.33;102657.72;4390919;26;19931;-67
2024/04/12 03:20:06;;;;;;;;;;;;;;;13.68;77.47;102660.44;4390029;26;19930;-67
2024/04/12 03:22:12;;;;;;;;;;;;;;;13.68;77.45;102655.88;4391317;27;20355;-67
2024/04/12 03:24:14;;;;;;;;;;;;;;;13.67;77.52;102656.03;4391234;27;19931;-67
2024/04/12 03:26:19;;;;;;;;;;;;;;;13.66;77.73;102655.16;4386895;26;20037;-67
2024/04/12 03:28:20;;;;;;;;;;;;;;;13.66;77.67;102657.03;4388599;26;20373;-68
2024/04/12 03:30:25;;;;;;;;;;;;;;;13.65;78.02;102661.63;4389769;26;20301;-67
2024/04/12 03:32:32;;;;;;;;;;;;;;;13.65;77.80;102656.19;4390632;26;19937;-68
2024/04/12 03:34:36;;;;;;;;;;;;;;;13.65;77.88;102663.44;4375300;27;20984;-67
2024/04/12 03:36:53;;;;;;;;;;;;;;;13.64;78.16;102661.75;4389795;26;19931;-68
2024/04/12 03:41:21;;;;;;;;;;;;;;;13.64;78.07;102650.91;4392294;26;19930;-68
2024/04/12 03:43:22;;;;;;;;;;;;;;;13.63;78.17;102649.19;4390978;27;19938;-68
2024/04/12 03:45:26;;;;;;;;;;;;;;;13.62;78.10;102651.06;4378049;27;20448;-68
2024/04/12 03:47:27;;;;;;;;;;;;;;;13.63;78.18;102658.16;4391847;26;19930;-68
2024/04/12 03:49:30;;;;;;;;;;;;;;;13.60;77.77;102649.47;4360825;27;20397;-67
2024/04/12 03:51:33;;;;;;;;;;;;;;;13.63;78.28;102657.31;4390182;26;19937;-67
2024/04/12 03:53:37;;;;;;;;;;;;;;;13.62;78.38;102656.47;4390849;27;19930;-67
2024/04/12 03:55:44;;;;;;;;;;;;;;;13.61;78.63;102654.75;4361341;27;19941;-67
2024/04/12 03:57:51;;;;;;;;;;;;;;;13.62;78.72;102655.59;4390683;26;20381;-67
2024/04/12 03:59:59;;;;;;;;;;;;;;;13.63;78.43;102660.03;4390728;26;20353;-68
2024/04/12 04:02:06;;;;;;;;;;;;;;;13.61;78.62;102659.34;4393686;26;19935;-67
2024/04/12 04:04:11;;;;;;;;;;;;;;;13.61;78.67;102659.34;4393695;27;20373;-68
2024/04/12 04:06:15;;;;;;;;;;;;;;;13.61;78.80;102662.91;4394440;26;19986;-68
2024/04/12 04:08:19;;;;;;;;;;;;;;;13.60;78.78;102663.91;4392459;26;19931;-68
2024/04/12 04:10:22;;;;;;;;;;;;;;;13.60;78.96;102668.50;4393845;27;19999;-68
2024/04/12 04:12:26;;;;;;;;;;;;;;;13.60;79.00;102665.78;4393836;27;19959;-68
2024/04/12 04:14:32;;;;;;;;;;;;;;;13.61;78.85;102670.22;4391919;26;19934;-68
2024/04/12 04:16:36;;;;;;;;;;;;;;;13.59;78.90;102661.34;4394675;26;20287;-67
2024/04/12 04:18:41;;;;;;;;;;;;;;;13.60;78.93;102665.78;4393875;27;20000;-68
2024/04/12 04:20:43;;;;;;;;;;;;;;;13.61;79.10;102668.34;4393047;27;20004;-67
2024/04/12 04:22:49;;;;;;;;;;;;;;;13.60;79.11;102665.78;4361865;27;20413;-68
2024/04/12 04:24:51;;;;;;;;;;;;;;;13.60;79.18;102665.78;4393603;26;20367;-68
2024/04/12 04:26:54;;;;;;;;;;;;;;;13.59;79.06;102661.34;4364073;27;20002;-68
2024/04/12 04:29:00;;;;;;;;;;;;;;;13.59;79.25;102659.50;4378616;27;19931;-68
2024/04/12 04:31:08;;;;;;;;;;;;;;;13.58;79.33;102663.22;4394165;27;19963;-68
2024/04/12 04:33:12;;;;;;;;;;;;;;;13.58;79.43;102656.94;4394510;26;20359;-67
2024/04/12 04:35:15;;;;;;;;;;;;;;;13.58;79.35;102659.66;4394210;26;19938;-69
2024/04/12 04:37:19;;;;;;;;;;;;;;;13.59;79.39;102661.34;4394091;26;20272;-66
2024/04/12 04:39:24;;;;;;;;;;;;;;;13.59;79.67;102661.34;4393214;26;20317;-66
2024/04/12 04:41:27;;;;;;;;;;;;;;;13.58;79.70;102659.66;4393824;26;19938;-69
2024/04/12 04:43:31;;;;;;;;;;;;;;;13.58;79.63;102665.91;4391453;26;19966;-69
2024/04/12 04:45:35;;;;;;;;;;;;;;;13.59;79.46;102669.47;4391375;26;19931;-69
2024/04/12 04:47:39;;;;;;;;;;;;;;;13.59;79.82;102666.75;4391552;26;19939;-70
2024/04/12 04:49:40;;;;;;;;;;;;;;;13.59;79.62;102667.63;4391282;26;20005;-69
2024/04/12 04:51:45;;;;;;;;;;;;;;;13.60;79.86;102668.50;4390026;27;19942;-69
2024/04/12 04:53:46;;;;;;;;;;;;;;;13.60;80.13;102657.63;4391351;26;19930;-69
2024/04/12 04:55:50;;;;;;;;;;;;;;;13.60;79.72;102663.06;4363388;27;19987;-67
2024/04/12 04:57:54;;;;;;;;;;;;;;;13.59;79.93;102658.63;4389887;26;20388;-70
2024/04/12 05:00:06;;;;;;;;;;;;;;;13.60;79.80;102663.06;4392039;26;19954;-70
2024/04/12 05:02:10;;;;;;;;;;;;;;;13.60;79.92;102658.47;4391395;27;20028;-71
2024/04/12 05:04:16;;;;;;;;;;;;;;;13.61;80.07;102653.91;4385542;26;20373;-69
2024/04/12 05:06:24;;;;;;;;;;;;;;;13.60;80.07;102657.63;4382638;26;22775;-68
2024/04/12 05:08:28;;;;;;;;;;;;;;;13.60;80.14;102653.03;4382888;26;19946;-70
2024/04/12 05:10:33;;;;;;;;;;;;;;;13.60;80.37;102650.31;4355781;27;19931;-69
2024/04/12 05:12:37;;;;;;;;;;;;;;;13.60;80.29;102644.91;4387790;26;19930;-69
2024/04/12 05:14:46;;;;;;;;;;;;;;;13.61;80.45;102645.78;4361228;27;19931;-69
2024/04/12 05:16:49;;;;;;;;;;;;;;;13.60;80.67;102642.19;4393855;26;19930;-69
2024/04/12 05:18:53;;;;;;;;;;;;;;;13.61;80.60;102645.78;4393130;27;19930;-69
2024/04/12 05:20:57;;;;;;;;;;;;;;;13.60;80.48;102634.03;4391991;27;19931;-69
2024/04/12 05:23:00;;;;;;;;;;;;;;;13.59;80.38;102635.06;4393461;26;20694;-69
2024/04/12 05:25:05;;;;;;;;;;;;;;;13.59;80.38;102626.91;4393107;26;19930;-69
2024/04/12 05:27:06;;;;;;;;;;;;;;;13.59;80.21;102632.34;4392877;26;19937;-69
2024/04/12 05:29:10;;;;;;;;;;;;;;;13.59;80.29;102628.75;4363056;27;20404;-69
2024/04/12 05:31:13;;;;;;;;;;;;;;;13.59;80.03;102628.75;4380476;26;19941;-69
2024/04/12 05:33:17;;;;;;;;;;;;;;;13.59;80.04;102635.06;4393146;26;20000;-69
2024/04/12 05:35:26;;;;;;;;;;;;;;;13.60;80.08;102647.63;4363110;27;20034;-69
2024/04/12 05:37:35;;;;;;;;;;;;;;;13.60;80.17;102628.59;4392495;26;19931;-69
2024/04/12 05:39:41;;;;;;;;;;;;;;;13.61;80.24;102637.63;4393118;26;20029;-69
2024/04/12 05:41:45;;;;;;;;;;;;;;;13.62;80.26;102642.91;4378761;27;19931;-69
2024/04/12 05:43:46;;;;;;;;;;;;;;;13.63;80.55;102641.88;4393132;26;20011;-69
2024/04/12 05:45:50;;;;;;;;;;;;;;;13.63;80.42;102633.75;4393020;26;19942;-69
2024/04/12 05:47:54;;;;;;;;;;;;;;;13.63;80.73;102635.59;4393736;26;20323;-69
2024/04/12 05:50:01;;;;;;;;;;;;;;;13.64;80.37;102635.47;4393043;27;19935;-69
2024/04/12 05:52:06;;;;;;;;;;;;;;;13.64;80.73;102638.16;4361384;27;20307;-69
2024/04/12 05:54:15;;;;;;;;;;;;;;;13.65;80.70;102633.59;4393025;26;19939;-69
2024/04/12 05:56:25;;;;;;;;;;;;;;;13.64;80.66;102630.03;4392652;26;19931;-69
2024/04/12 05:58:29;;;;;;;;;;;;;;;13.65;80.71;102636.31;4392293;27;19930;-69
2024/04/12 06:00:30;;;;;;;;;;;;;;;13.66;80.75;102640.72;4391528;27;19942;-69
2024/04/12 06:02:34;;;;;;;;;;;;;;;13.67;80.82;102639.75;4348447;27;20377;-68
2024/04/12 06:04:36;;;;;;;;;;;;;;;13.67;80.88;102640.59;4393513;26;19987;-69
2024/04/12 06:06:42;;;;;;;;;;;;;;;13.68;81.00;102638.72;4392347;26;19931;-70
2024/04/12 06:08:46;;;;;;;;;;;;;;;13.69;80.68;102629.56;4392691;26;19938;-69
2024/04/12 06:10:50;;;;;;;;;;;;;;;13.70;80.72;102636.72;4391947;26;19930;-69
2024/04/12 06:12:54;;;;;;;;;;;;;;;13.70;80.93;102643.00;4391483;27;20404;-69
2024/04/12 06:15:00;;;;;;;;;;;;;;;13.72;80.82;102642.00;4362193;27;20005;-68
2024/04/12 06:17:06;;;;;;;;;;;;;;;13.73;80.48;102639.13;4392374;26;20031;-69
2024/04/12 06:19:12;;;;;;;;;;;;;;;13.73;80.57;102636.41;4392482;27;19937;-69
2024/04/12 06:21:13;;;;;;;;;;;;;;;13.74;80.15;102623.69;4391844;27;20368;-69
2024/04/12 06:23:19;;;;;;;;;;;;;;;13.75;80.18;102628.13;4362078;27;20373;-70
2024/04/12 06:25:23;;;;;;;;;;;;;;;13.76;80.35;102621.66;4390815;26;19931;-69
2024/04/12 06:27:33;;;;;;;;;;;;;;;13.76;80.46;102618.94;4391951;26;19930;-69
2024/04/12 06:29:34;;;;;;;;;;;;;;;13.76;80.31;102622.53;4390024;27;20300;-69
2024/04/12 06:31:38;;;;;;;;;;;;;;;13.76;80.23;102619.81;4362963;27;20601;-69
2024/04/12 06:33:39;;;;;;;;;;;;;;;13.78;80.33;102625.94;4392790;26;19937;-69
2024/04/12 06:35:44;;;;;;;;;;;;;;;13.79;80.32;102629.50;4392396;26;19959;-69
2024/04/12 06:37:46;;;;;;;;;;;;;;;13.79;80.37;102624.06;4392242;26;19938;-69
2024/04/12 06:39:55;;;;;;;;;;;;;;;13.80;79.87;102628.50;4392660;26;19937;-69
2024/04/12 06:42:04;;;;;;;;;;;;;;;13.80;79.78;102629.34;4392635;27;20363;-69
2024/04/12 06:44:15;;;;;;;;;;;;;;;13.81;79.69;102628.38;4362979;27;19942;-69
2024/04/12 06:46:18;;;;;;;;;;;;;;;13.83;79.93;102625.50;4392088;26;20335;-69
2024/04/12 06:48:26;;;;;;;;;;;;;;;13.82;80.04;102638.22;4391900;26;20009;-69
2024/04/12 06:50:27;;;;;;;;;;;;;;;13.83;80.25;102628.22;4391039;27;20373;-69
2024/04/12 06:52:34;;;;;;;;;;;;;;;13.84;80.16;102636.22;4392108;26;19930;-69
2024/04/12 06:54:35;;;;;;;;;;;;;;;13.85;80.09;102639.78;4384860;26;19930;-69
2024/04/12 06:56:36;;;;;;;;;;;;;;;13.86;79.96;102636.06;4387328;26;19938;-68
2024/04/12 06:58:43;;;;;;;;;;;;;;;13.86;79.81;102641.50;4389539;27;19930;-69
2024/04/12 07:00:46;;;;;;;;;;;;;;;13.87;80.03;102643.19;4391759;27;19930;-69
2024/04/12 07:02:50;;;;;;;;;;;;;;;13.88;80.22;102642.19;4391506;27;19930;-69
2024/04/12 07:04:54;;;;;;;;;;;;;;;13.88;80.07;102647.63;4392759;26;20389;-69
2024/04/12 07:06:58;;;;;;;;;;;;;;;13.89;80.33;102649.34;4361913;27;20293;-69
2024/04/12 07:08:59;;;;;;;;;;;;;;;13.90;80.21;102658.31;4392107;27;19930;-69
2024/04/12 07:11:07;;;;;;;;;;;;;;;13.91;80.15;102651.91;4391987;27;19951;-69
2024/04/12 07:13:08;;;;;;;;;;;;;;;13.91;79.97;102660.03;4393075;26;20375;-69
2024/04/12 07:15:21;;;;;;;;;;;;;;;13.92;80.00;102665.31;4362491;27;19942;-70
2024/04/12 07:17:23;;;;;;;;;;;;;;;13.93;80.20;102658.88;4391104;26;19985;-69
2024/04/12 07:19:28;;;;;;;;;;;;;;;13.93;80.10;102653.44;4391322;26;19941;-69
2024/04/12 07:21:30;;;;;;;;;;;;;;;13.95;80.04;102653.28;4391154;27;20335;-68
2024/04/12 07:23:33;;;;;;;;;;;;;;;13.96;79.99;102655.00;4390138;27;19930;-70
2024/04/12 07:25:34;;;;;;;;;;;;;;;13.97;79.75;102645.84;4391838;26;19939;-69
2024/04/12 07:27:41;;;;;;;;;;;;;;;13.98;79.91;102652.97;4391041;26;20694;-69
2024/04/12 07:29:44;;;;;;;;;;;;;;;13.98;79.64;102656.56;4391990;27;19931;-69
2024/04/12 07:31:53;;;;;;;;;;;;;;;14.00;79.59;102654.53;4391989;26;19931;-69
2024/04/12 07:33:54;;;;;;;;;;;;;;;14.02;79.27;102657.09;4391930;26;19930;-68
2024/04/12 07:35:59;;;;;;;;;;;;;;;14.02;79.41;102651.69;4391613;26;19958;-69
2024/04/12 07:38:00;;;;;;;;;;;;;;;14.03;79.45;102662.38;4393936;26;20268;-69
2024/04/12 07:42:26;;;;;;;;;;;;;;;14.06;78.60;102653.94;4358733;27;20310;-70
2024/04/12 07:44:30;;;;;;;;;;;;;;;14.08;78.38;102642.06;4393015;26;19931;-68
2024/04/12 07:46:36;;;;;;;;;;;;;;;14.08;78.17;102637.47;4394245;26;19962;-69
2024/04/12 07:48:40;;;;;;;;;;;;;;;14.10;77.53;102643.59;4394497;27;19939;-69
2024/04/12 07:50:45;;;;;;;;;;;;;;;14.11;77.04;102644.47;4392443;27;20079;-70
2024/04/12 07:52:46;;;;;;;;;;;;;;;14.13;76.78;102635.16;4392384;26;19930;-69
2024/04/12 07:54:53;;;;;;;;;;;;;;;14.13;76.26;102635.16;4394509;26;20339;-69
2024/04/12 07:57:07;;;;;;;;;;;;;;;14.16;76.38;102634.84;4364437;27;19966;-69
2024/04/12 07:59:17;;;;;;;;;;;;;;;14.19;75.57;102636.41;4364367;27;20316;-70
2024/04/12 08:01:19;;;;;;;;;;;;;;;14.20;75.57;102636.25;4394483;27;19930;-69
2024/04/12 08:03:19;;;;;;;;;;;;;;;14.22;75.62;102647.81;4393742;27;19939;-69
2024/04/12 08:05:28;;;;;;;;;;;;;;;14.23;75.57;102644.09;4394658;26;19937;-69
2024/04/12 08:07:30;;;;;;;;;;;;;;;14.27;74.96;102649.22;4393876;26;19930;-66
2024/04/12 08:09:42;;;;;;;;;;;;;;;14.29;74.97;102644.47;4392045;26;20004;-69
2024/04/12 08:11:44;;;;;;;;;;;;;;;14.29;74.80;102639.88;4392620;26;20491;-69
2024/04/12 08:13:50;;;;;;;;;;;;;;;14.32;74.35;102634.13;4376660;27;19956;-69
2024/04/12 08:15:52;;;;;;;;;;;;;;;14.33;74.30;102633.13;4364163;27;19938;-69
2024/04/12 08:17:58;;;;;;;;;;;;;;;14.34;73.98;102632.13;4391498;26;19931;-70
2024/04/12 08:20:12;;;;;;;;;;;;;;;14.37;74.06;102639.09;4393196;27;19938;-70
2024/04/12 08:22:20;;;;;;;;;;;;;;;14.38;74.19;102638.94;4360143;27;20293;-70
2024/04/12 08:24:23;;;;;;;;;;;;;;;14.39;74.17;102642.53;4392245;26;19947;-70
2024/04/12 08:26:31;;;;;;;;;;;;;;;14.41;73.67;102641.34;4363914;27;19935;-70
2024/04/12 08:28:32;;;;;;;;;;;;;;;14.43;74.10;102635.75;4393396;27;19942;-70
2024/04/12 08:30:51;;;;;;;;;;;;;;;14.44;73.53;102623.88;4393811;27;19931;-70
2024/04/12 08:32:55;;;;;;;;;;;;;;;14.46;73.90;102623.72;4393028;26;20005;-70
2024/04/12 08:35:06;;;;;;;;;;;;;;;14.48;73.50;102628.00;4393682;26;20313;-70
2024/04/12 08:37:12;;;;;;;;;;;;;;;14.50;73.58;102630.53;4392245;26;19931;-70
2024/04/12 08:39:29;;;;;;;;;;;;;;;14.52;73.87;102625.81;4393900;26;19937;-70
2024/04/12 08:41:31;;;;;;;;;;;;;;;14.53;73.85;102622.94;4363740;27;20431;-70
2024/04/12 08:43:46;;;;;;;;;;;;;;;14.55;73.05;102622.78;4393809;27;19974;-71
2024/04/12 08:45:47;;;;;;;;;;;;;;;14.57;73.19;102628.91;4394764;26;19930;-70
2024/04/12 08:47:55;;;;;;;;;;;;;;;14.57;73.36;102624.31;4392699;26;19960;-70
2024/04/12 08:50:03;;;;;;;;;;;;;;;14.59;73.02;102618.72;4393322;27;19938;-71
2024/04/12 08:52:24;;;;;;;;;;;;;;;14.61;73.53;102624.91;4363794;27;19937;-70
2024/04/12 08:54:28;;;;;;;;;;;;;;;14.63;73.51;102622.88;4394470;26;19937;-71
2024/04/12 08:56:32;;;;;;;;;;;;;;;14.65;73.38;102622.72;4392873;26;19931;-70
2024/04/12 08:58:36;;;;;;;;;;;;;;;14.66;73.09;102625.28;4391888;27;19930;-70
2024/04/12 09:00:42;;;;;;;;;;;;;;;14.66;72.96;102622.56;4393699;27;19937;-71
2024/04/12 09:02:48;;;;;;;;;;;;;;;14.69;73.38;102607.81;4393122;27;20380;-70
2024/04/12 09:04:52;;;;;;;;;;;;;;;14.68;73.20;102608.81;4393710;26;19935;-69
2024/04/12 09:06:58;;;;;;;;;;;;;;;14.69;73.10;102605.09;4322314;27;20382;-70
2024/04/12 09:09:01;;;;;;;;;;;;;;;14.71;72.90;102603.91;4393785;27;19930;-73
2024/04/12 09:11:06;;;;;;;;;;;;;;;14.73;73.19;102598.31;4394663;26;19931;-72
2024/04/12 09:13:14;;;;;;;;;;;;;;;14.76;73.30;102607.03;4377865;27;20479;-75
2024/04/12 09:15:24;;;;;;;;;;;;;;;14.76;73.13;102604.31;4393631;26;19931;-75
2024/04/12 09:17:29;;;;;;;;;;;;;;;14.77;73.25;102597.81;4393861;26;20033;-70
2024/04/12 09:19:38;;;;;;;;;;;;;;;14.78;73.10;102596.81;4393812;27;20009;-70
2024/04/12 09:21:47;;;;;;;;;;;;;;;14.80;73.16;102601.25;4362121;27;19943;-69
2024/04/12 09:23:50;;;;;;;;;;;;;;;14.82;73.22;102605.50;4393665;27;20388;-70
2024/04/12 09:25:57;;;;;;;;;;;;;;;14.81;72.78;102606.53;4393846;26;19938;-70
2024/04/12 09:28:03;;;;;;;;;;;;;;;14.83;72.73;102604.50;4393589;26;19935;-70
2024/04/12 09:34:46;;;;;;;;;;;;;;;14.89;73.08;102605.72;4363860;27;19939;-70
2024/04/12 09:36:55;;;;;;;;;;;;;;;14.89;72.80;102593.00;4364879;27;20282;-69
2024/04/12 09:38:59;;;;;;;;;;;;;;;14.90;72.88;102600.13;4391899;26;19935;-69
2024/04/12 09:41:13;;;;;;;;;;;;;;;14.92;73.30;102586.34;4363113;27;19938;-69
2024/04/12 09:43:29;;;;;;;;;;;;;;;14.95;72.92;102594.19;4354139;27;20229;-69
2024/04/12 09:45:45;;;;;;;;;;;;;;;14.95;73.50;102581.47;4388806;26;19942;-69
2024/04/12 10:38:27;;;;;;;;;;;;;;;15.21;73.47;102547.06;4377663;26;19939;-71
2024/04/12 10:40:31;;;;;;;;;;;;;;;15.21;73.51;102538.91;4393167;27;19938;-70
2024/04/12 10:42:37;;;;;;;;;;;;;;;15.22;73.33;102544.19;4367210;27;19937;-69
2024/04/12 10:44:41;;;;;;;;;;;;;;;15.23;73.39;102545.88;4396720;26;19930;-69
2024/04/12 10:46:50;;;;;;;;;;;;;;;15.25;73.41;102545.69;4366171;27;19943;-69
2024/04/12 10:48:55;;;;;;;;;;;;;;;15.26;73.37;102536.53;4394787;26;19955;-69
2024/04/12 10:51:01;;;;;;;;;;;;;;;15.26;73.29;102522.91;4395141;26;19931;-69
2024/04/12 10:53:07;;;;;;;;;;;;;;;15.26;73.34;102521.03;4395994;27;19931;-70
2024/04/12 10:55:16;;;;;;;;;;;;;;;15.25;72.90;102516.63;4394193;26;20005;-71
2024/04/12 10:57:19;;;;;;;;;;;;;;;15.27;72.92;102528.19;4376941;26;19943;-69
2024/04/12 10:59:30;;;;;;;;;;;;;;;15.28;73.15;102523.59;4377372;26;19935;-70
2024/04/12 11:01:31;;;;;;;;;;;;;;;15.29;73.28;102522.59;4363095;27;19975;-70
2024/04/12 11:03:38;;;;;;;;;;;;;;;15.30;72.96;102516.97;4392490;27;19931;-69
2024/04/12 11:05:44;;;;;;;;;;;;;;;15.30;73.25;102518.84;4363062;27;19942;-70
2024/04/12 11:07:48;;;;;;;;;;;;;;;15.30;72.85;102508.81;4391545;26;19931;-70
2024/04/12 11:09:57;;;;;;;;;;;;;;;15.31;73.10;102510.53;4390451;27;19937;-70
2024/04/12 11:12:09;;;;;;;;;;;;;;;15.32;73.04;102497.75;4391542;27;20278;-70
2024/04/12 11:14:17;;;;;;;;;;;;;;;15.35;73.14;102491.16;4396281;26;19942;-70
2024/04/12 11:32:55;;;;;;;;;;;;;;;15.43;72.79;102483.00;4363539;27;19941;-68
2024/04/12 11:35:01;;;;;;;;;;;;;;;15.44;72.79;102476.53;4391826;27;19935;-69
2024/04/12 11:37:07;;;;;;;;;;;;;;;15.43;72.60;102467.50;4363365;27;19939;-69
2024/04/12 11:39:17;;;;;;;;;;;;;;;15.45;72.70;102468.19;4393333;26;20284;-68
2024/04/12 11:41:23;;;;;;;;;;;;;;;15.48;73.22;102473.28;4393683;26;20272;-68
2024/04/12 11:43:30;;;;;;;;;;;;;;;15.48;72.95;102476.00;4380952;27;19931;-69
2024/04/12 11:45:34;;;;;;;;;;;;;;;15.49;72.80;102476.88;4337231;27;19936;-68
2024/04/12 11:47:38;;;;;;;;;;;;;;;15.51;72.82;102469.38;4394380;26;19935;-68
2024/04/12 11:49:41;;;;;;;;;;;;;;;15.53;72.57;102474.66;4391551;27;19930;-69
2024/04/12 11:51:48;;;;;;;;;;;;;;;15.54;73.03;102477.22;4390618;27;19930;-68
2024/04/12 11:53:51;;;;;;;;;;;;;;;15.55;72.75;102469.88;4364533;27;19938;-68
2024/04/12 11:55:55;;;;;;;;;;;;;;;15.58;72.45;102466.84;4390667;26;19934;-68
2024/04/12 11:57:58;;;;;;;;;;;;;;;15.58;72.76;102459.53;4362380;27;19935;-68